AirNav   Free Bose QuietComfort 20
 
 1505 users online  

FL24 West Florida Regional Medical Center Heliport
Pensacola, Florida, USA

GOING TO PENSACOLA?


FAA INFORMATION EFFECTIVE 05 DECEMBER 2019

Location

FAA Identifier: FL24
Lat/Long: 30-30-59.5400N 087-13-10.8400W
30-30.992333N 087-13.180667W
30.5165389,-87.2196778
(estimated)
Elevation: 100 ft. / 30 m (estimated)
Variation: 01E (1985)
From city: 2 miles N of PENSACOLA, FL
Time zone: UTC -6 (UTC -5 during Daylight Saving Time)
Zip code: 32503

Heliport Operations

Heliport use: Private use, MEDICAL.
Activation date: 06/1977
Control tower: no
ARTCC: JACKSONVILLE CENTER
FSS: GAINESVILLE FLIGHT SERVICE STATION
Attendance: CONTINUOUS
Wind indicator: yes
Segmented circle: no
Lights: FOR PERIMETER LGTS CALL 904-494-4000

Heliport Communications

WX ASOS at PNS (3 nm SE): PHONE 850-436-4799
WX ASOS at NDZ (15 nm NE): PHONE 850-623-7210
WX ASOS at NSE (16 nm NE): PHONE 850-623-7241

Nearby radio navigation aids

VOR radial/distance  VOR name  Freq  Var
NUNr065/(6.6)SAUFLEY VOR108.8001E
CEWr233/33.5CRESTVIEW VORTAC115.9003E

 
NDB name  Hdg/Dist  Freq  Var  ID
PICKENS338/5.232602WPKZ .--. -.- --..

Heliport Services

Runway Information

Helipad H1

Dimensions: 40 x 40 ft. / 12 x 12 m
Surface: concrete, in fair condition
Runway edge lights: PERI
Latitude: 30-30.992333N
Longitude: 087-13.180667W
Elevation: 100.0 ft.
Traffic pattern: leftleft
Markings: none, in fair condition
Obstructions: pline, marked, 600 ft. from runway

Heliport Ownership and Management from official FAA records

Ownership: Privately-owned
Owner: W FL REGIONAL MEDICAL CENTER
8383 N DAVIS HIGHWAY
PENSACOLA, FL 32523-8900
Phone 904-494-4000
Manager: CARLON ULMER
8383 N DAVIS HIGHWAY
PENSACOLA, FL 32523-8900
Phone 904-494-4000
FRANK HOLMES, 850-494-4694

Additional Remarks

FOR CD CTC PENSACOLA APCH AT 850-266-6884 OR 850-266-6885.

Instrument Procedures

There are no published instrument procedures at FL24.

Some nearby airports with instrument procedures:

KPNS - Pensacola International Airport (3 nm SE)
KNPA - Pensacola Naval Air Station/Forrest Sherman Field (11 nm SW)
2R4 - Peter Prince Field Airport (14 nm NE)
KNDZ - Whiting Field Naval Air Station South (15 nm NE)
KNSE - Whiting Field Naval Air Station North (16 nm NE)
 
Loc | Ops | Rwys | IFR | FBO | Links
Com | Nav | Svcs | Stats | Notes

Continental Motors
AirBoss

 
Area around FL24 (West Florida Regional Medical Center Heliport)
 
Road maps at: MapQuest Bing Google
 
Aerial photo
No photo
 
Sectional chart

 
Airport distance calculator
Flying to West Florida Regional Medical Center Heliport? Find the distance to fly.

From to FL24

Sunrise and sunset
Times for 05-Dec-2019
 Local
(UTC-6)
 Zulu
(UTC)
Morning civil twilight06:0612:06
Sunrise06:3212:32
Sunset16:4722:47
Evening civil twilight17:1323:13

Current date and time
Zulu (UTC)  05-Dec-2019 18:36:40
Local (UTC-6)  05-Dec-2019 12:36:40
 
METAR
KPNS 
3nm SE 
051753Z 16006KT 10SM CLR 18/02 A3014 RMK AO2 SLP209 T01830022 10183 20050 58009 $
KNPA 
11nm SW 
051756Z 15005KT 10SM FEW150 BKN250 19/02 A3014 RMK SLP208 FU DSNT N-NE T01890022 10189 20028 58010
KNDZ 
15nm NE 
051756Z VRB04KT 10SM BKN250 18/04 A3015 RMK SLP196 T01830044 10189 20011 58012
KNSE 
16nm NE 
051756Z 00000KT 10SM BKN250 18/03 A3014 RMK SLP195 T01780028 10183 20011 58013
TAF
KPNS 
3nm SE 
051727Z 0518/0618 00000KT P6SM SKC FM060000 16003KT P6SM BKN250 FM061500 16006KT P6SM BKN100
KNPA 
11nm SW 
0515/0615 VRB05KT 9999 BKN250 QNH3011INS FM051800 14007KT 9999 SCT180 BKN250 QNH3007INS FM060600 16005KT 9999 FEW020 BKN140 BKN250 QNH3006INS FM061000 16007KT 9999 BKN020 BKN140 BKN250 QNH3007INS T18/0519Z T11/0612Z FN20033
KNSE 
16nm NE 
0515/0615 VRB05KT 9999 FEW150 SCT250 QNH3014INS FM052100 14006KT 9999 FEW150 BKN250 QNH3012INS FM060700 12005KT 9999 SCT120 BKN250 QNH3011INS FM061000 13006KT 9999 SCT020 BKN120 BKN250 QNH3012INS T19/0520Z T08/0611Z FN20071
NOTAMs
Click for the latest NOTAMs
NOTAMs are issued by the DoD/FAA and will open in a separate window not controlled by AirNav.

 

 
 

Would you like to see your business listed on this page?

 If your business provides an interesting product or service to pilots, flight crews, aircraft, or users of the West Florida Regional Medical Center Heliport, you should consider listing it here.  To start the listing process, click on the button below
 
Add a business
 

Other Pages about West Florida Regional Medical Center Heliport

Update a link
 
Copyright © AirNav, LLC. All rights reserved. Privacy Policy  Contact